sensor_id;sensor_type;location;lat;lon;timestamp;pressure;altitude;pressure_sealevel;temperature;humidity
74798;BME280;63326;45.088;7.658;2023-06-22T00:01:18;99039.16;;;21.59;86.53
74798;BME280;63326;45.088;7.658;2023-06-22T00:03:46;99049.47;;;21.57;86.73
74798;BME280;63326;45.088;7.658;2023-06-22T00:06:13;99051.06;;;21.53;87.59
74798;BME280;63326;45.088;7.658;2023-06-22T00:08:40;99055.38;;;21.49;88.11
74798;BME280;63326;45.088;7.658;2023-06-22T00:11:07;99030.81;;;21.32;87.18
74798;BME280;63326;45.088;7.658;2023-06-22T00:13:33;99049.00;;;21.43;87.05
74798;BME280;63326;45.088;7.658;2023-06-22T00:16:00;99032.19;;;21.34;87.43
74798;BME280;63326;45.088;7.658;2023-06-22T00:18:27;99042.41;;;21.39;87.46
74798;BME280;63326;45.088;7.658;2023-06-22T00:20:57;99039.97;;;21.42;87.80
74798;BME280;63326;45.088;7.658;2023-06-22T00:23:25;99029.47;;;21.34;88.07
74798;BME280;63326;45.088;7.658;2023-06-22T00:25:52;99038.75;;;21.33;88.10
74798;BME280;63326;45.088;7.658;2023-06-22T00:28:19;99030.72;;;21.27;88.00
74798;BME280;63326;45.088;7.658;2023-06-22T00:30:46;99054.41;;;21.38;87.95
74798;BME280;63326;45.088;7.658;2023-06-22T00:33:14;99052.72;;;21.37;87.45
74798;BME280;63326;45.088;7.658;2023-06-22T00:35:42;99042.88;;;21.36;88.38
74798;BME280;63326;45.088;7.658;2023-06-22T00:38:09;99037.41;;;21.36;87.84
74798;BME280;63326;45.088;7.658;2023-06-22T00:40:36;99019.22;;;21.25;88.25
74798;BME280;63326;45.088;7.658;2023-06-22T00:43:03;99042.63;;;21.37;87.74
74798;BME280;63326;45.088;7.658;2023-06-22T00:45:31;99052.56;;;21.43;87.46
74798;BME280;63326;45.088;7.658;2023-06-22T00:47:59;99054.78;;;21.47;87.56
74798;BME280;63326;45.088;7.658;2023-06-22T00:50:29;99041.63;;;21.43;87.38
74798;BME280;63326;45.088;7.658;2023-06-22T00:53:03;99017.31;;;21.42;87.87
74798;BME280;63326;45.088;7.658;2023-06-22T00:55:36;99026.56;;;21.41;87.88
74798;BME280;63326;45.088;7.658;2023-06-22T00:58:08;99007.19;;;21.42;87.46
74798;BME280;63326;45.088;7.658;2023-06-22T01:00:38;99005.03;;;21.45;87.82
74798;BME280;63326;45.088;7.658;2023-06-22T01:03:05;99009.00;;;21.54;87.00
74798;BME280;63326;45.088;7.658;2023-06-22T01:05:36;99020.84;;;21.59;84.94
74798;BME280;63326;45.088;7.658;2023-06-22T01:08:29;99019.50;;;21.62;85.31
74798;BME280;63326;45.088;7.658;2023-06-22T01:16:31;99008.50;;;21.57;87.00
74798;BME280;63326;45.088;7.658;2023-06-22T01:19:07;99003.03;;;21.57;86.18
74798;BME280;63326;45.088;7.658;2023-06-22T01:21:36;98988.38;;;21.63;84.72
74798;BME280;63326;45.088;7.658;2023-06-22T01:29:29;99010.75;;;21.60;84.85
74798;BME280;63326;45.088;7.658;2023-06-22T01:31:57;99016.53;;;21.63;85.21
74798;BME280;63326;45.088;7.658;2023-06-22T01:34:28;99028.28;;;21.64;85.46
74798;BME280;63326;45.088;7.658;2023-06-22T01:36:56;99051.13;;;21.58;87.07
74798;BME280;63326;45.088;7.658;2023-06-22T01:39:24;99036.53;;;21.30;87.94
74798;BME280;63326;45.088;7.658;2023-06-22T01:41:53;99047.59;;;21.24;88.25
74798;BME280;63326;45.088;7.658;2023-06-22T01:44:20;99055.63;;;21.13;88.52
74798;BME280;63326;45.088;7.658;2023-06-22T01:46:49;99071.13;;;21.08;89.96
74798;BME280;63326;45.088;7.658;2023-06-22T01:49:19;99073.78;;;20.91;90.86
74798;BME280;63326;45.088;7.658;2023-06-22T01:51:46;99061.03;;;20.80;91.21
74798;BME280;63326;45.088;7.658;2023-06-22T01:54:13;99040.41;;;20.72;91.76
74798;BME280;63326;45.088;7.658;2023-06-22T01:56:39;99007.78;;;20.66;91.83
74798;BME280;63326;45.088;7.658;2023-06-22T02:02:19;99035.94;;;20.66;91.17
74798;BME280;63326;45.088;7.658;2023-06-22T02:05:05;99036.41;;;20.63;91.37
74798;BME280;63326;45.088;7.658;2023-06-22T02:07:41;99047.31;;;20.63;91.75
74798;BME280;63326;45.088;7.658;2023-06-22T02:10:09;99037.63;;;20.55;91.90
74798;BME280;63326;45.088;7.658;2023-06-22T02:12:39;99053.28;;;20.60;91.29
74798;BME280;63326;45.088;7.658;2023-06-22T02:15:09;99060.50;;;20.66;91.02
74798;BME280;63326;45.088;7.658;2023-06-22T02:17:37;99058.81;;;20.65;91.20
74798;BME280;63326;45.088;7.658;2023-06-22T02:20:04;99015.22;;;20.53;90.87
74798;BME280;63326;45.088;7.658;2023-06-22T02:22:35;99019.06;;;20.69;90.15
74798;BME280;63326;45.088;7.658;2023-06-22T02:25:02;99009.47;;;20.67;89.46
74798;BME280;63326;45.088;7.658;2023-06-22T02:27:29;99021.63;;;20.76;89.32
74798;BME280;63326;45.088;7.658;2023-06-22T02:29:56;99025.53;;;20.80;89.46
74798;BME280;63326;45.088;7.658;2023-06-22T02:32:23;99023.38;;;20.82;89.00
74798;BME280;63326;45.088;7.658;2023-06-22T02:34:50;99002.53;;;20.76;88.65
74798;BME280;63326;45.088;7.658;2023-06-22T02:37:17;99019.06;;;20.86;88.70
74798;BME280;63326;45.088;7.658;2023-06-22T02:39:44;99022.56;;;20.81;88.81
74798;BME280;63326;45.088;7.658;2023-06-22T02:42:11;99030.25;;;20.84;88.81
74798;BME280;63326;45.088;7.658;2023-06-22T02:44:37;99042.81;;;20.85;89.31
74798;BME280;63326;45.088;7.658;2023-06-22T02:47:05;98990.19;;;20.56;89.83
74798;BME280;63326;45.088;7.658;2023-06-22T02:49:32;99022.31;;;20.66;90.41
74798;BME280;63326;45.088;7.658;2023-06-22T02:51:59;99049.09;;;20.69;90.60
74798;BME280;63326;45.088;7.658;2023-06-22T02:54:26;99038.66;;;20.66;91.31
74798;BME280;63326;45.088;7.658;2023-06-22T02:56:53;99036.41;;;20.63;90.72
74798;BME280;63326;45.088;7.658;2023-06-22T02:59:21;99035.75;;;20.56;91.58
74798;BME280;63326;45.088;7.658;2023-06-22T03:01:56;99039.78;;;20.53;91.89
74798;BME280;63326;45.088;7.658;2023-06-22T03:04:27;99039.13;;;20.46;92.69
74798;BME280;63326;45.088;7.658;2023-06-22T03:06:54;99035.78;;;20.44;91.98
74798;BME280;63326;45.088;7.658;2023-06-22T03:09:21;99028.28;;;20.51;91.80
74798;BME280;63326;45.088;7.658;2023-06-22T03:11:48;99032.66;;;20.52;92.08
74798;BME280;63326;45.088;7.658;2023-06-22T03:14:15;99037.63;;;20.55;91.72
74798;BME280;63326;45.088;7.658;2023-06-22T03:16:42;99032.78;;;20.58;91.12
74798;BME280;63326;45.088;7.658;2023-06-22T03:19:08;99016.22;;;20.47;90.56
74798;BME280;63326;45.088;7.658;2023-06-22T03:21:37;99036.91;;;20.60;90.68
74798;BME280;63326;45.088;7.658;2023-06-22T03:24:06;99050.81;;;20.59;91.08
74798;BME280;63326;45.088;7.658;2023-06-22T03:26:34;99056.97;;;20.54;91.44
74798;BME280;63326;45.088;7.658;2023-06-22T03:29:01;99052.75;;;20.46;91.89
74798;BME280;63326;45.088;7.658;2023-06-22T03:31:29;99049.72;;;20.31;92.64
74798;BME280;63326;45.088;7.658;2023-06-22T03:33:56;99073.75;;;20.34;93.31
74798;BME280;63326;45.088;7.658;2023-06-22T03:36:23;99086.00;;;20.32;93.81
74798;BME280;63326;45.088;7.658;2023-06-22T03:38:50;99065.13;;;20.14;94.06
74798;BME280;63326;45.088;7.658;2023-06-22T03:41:17;99091.44;;;20.20;93.74
74798;BME280;63326;45.088;7.658;2023-06-22T03:43:44;99089.44;;;20.15;94.98
74798;BME280;63326;45.088;7.658;2023-06-22T03:46:11;99090.41;;;20.09;94.96
74798;BME280;63326;45.088;7.658;2023-06-22T03:48:38;99069.09;;;19.83;94.93
74798;BME280;63326;45.088;7.658;2023-06-22T03:51:04;99109.13;;;19.94;95.92
74798;BME280;63326;45.088;7.658;2023-06-22T03:53:31;99104.66;;;19.88;96.49
74798;BME280;63326;45.088;7.658;2023-06-22T03:55:58;99106.41;;;19.82;96.17
74798;BME280;63326;45.088;7.658;2023-06-22T03:58:25;99116.16;;;19.78;96.20
74798;BME280;63326;45.088;7.658;2023-06-22T04:00:52;99109.97;;;19.71;95.91
74798;BME280;63326;45.088;7.658;2023-06-22T04:03:19;99110.34;;;19.75;96.48
74798;BME280;63326;45.088;7.658;2023-06-22T04:05:47;99103.22;;;19.74;95.46
74798;BME280;63326;45.088;7.658;2023-06-22T04:08:15;99088.06;;;19.78;95.30
74798;BME280;63326;45.088;7.658;2023-06-22T04:10:42;99082.25;;;19.86;94.78
74798;BME280;63326;45.088;7.658;2023-06-22T04:13:09;99068.25;;;19.94;92.75
74798;BME280;63326;45.088;7.658;2023-06-22T04:15:35;99071.19;;;20.04;92.04
74798;BME280;63326;45.088;7.658;2023-06-22T04:18:02;99066.91;;;20.20;92.00
74798;BME280;63326;45.088;7.658;2023-06-22T04:20:31;99074.16;;;20.26;91.92
74798;BME280;63326;45.088;7.658;2023-06-22T04:22:59;99079.81;;;20.36;91.11
74798;BME280;63326;45.088;7.658;2023-06-22T04:25:26;99079.91;;;20.41;91.28
74798;BME280;63326;45.088;7.658;2023-06-22T04:27:53;99060.88;;;20.30;91.51
74798;BME280;63326;45.088;7.658;2023-06-22T04:30:19;99081.19;;;20.50;90.23
74798;BME280;63326;45.088;7.658;2023-06-22T04:32:46;99080.81;;;20.59;89.08
74798;BME280;63326;45.088;7.658;2023-06-22T04:35:25;99082.09;;;20.68;88.15
74798;BME280;63326;45.088;7.658;2023-06-22T04:37:53;99075.50;;;20.80;86.24
74798;BME280;63326;45.088;7.658;2023-06-22T04:40:24;99057.41;;;20.91;85.27
74798;BME280;63326;45.088;7.658;2023-06-22T04:42:52;99029.03;;;20.92;83.99
74798;BME280;63326;45.088;7.658;2023-06-22T04:45:20;99010.59;;;20.99;84.21
74798;BME280;63326;45.088;7.658;2023-06-22T04:47:47;99027.59;;;21.18;83.99
74798;BME280;63326;45.088;7.658;2023-06-22T04:50:15;98997.28;;;21.20;83.28
74798;BME280;63326;45.088;7.658;2023-06-22T04:52:41;99012.09;;;21.40;81.90
74798;BME280;63326;45.088;7.658;2023-06-22T04:55:08;98976.19;;;21.32;80.70
74798;BME280;63326;45.088;7.658;2023-06-22T04:57:35;98992.34;;;21.55;80.30
74798;BME280;63326;45.088;7.658;2023-06-22T05:00:06;98992.00;;;21.68;78.34
74798;BME280;63326;45.088;7.658;2023-06-22T05:02:39;99006.88;;;21.78;77.13
74798;BME280;63326;45.088;7.658;2023-06-22T05:05:07;99019.97;;;21.92;75.53
74798;BME280;63326;45.088;7.658;2023-06-22T05:07:34;99021.91;;;22.19;75.69
74798;BME280;63326;45.088;7.658;2023-06-22T05:10:05;99022.38;;;22.33;74.83
74798;BME280;63326;45.088;7.658;2023-06-22T05:12:31;99013.88;;;22.56;73.47
74798;BME280;63326;45.088;7.658;2023-06-22T05:14:58;99036.41;;;22.90;72.71
74798;BME280;63326;45.088;7.658;2023-06-22T05:17:25;99049.84;;;23.24;71.79
74798;BME280;63326;45.088;7.658;2023-06-22T05:19:52;99068.06;;;23.35;70.54
74798;BME280;63326;45.088;7.658;2023-06-22T05:22:19;99084.75;;;23.65;71.36
74798;BME280;63326;45.088;7.658;2023-06-22T05:24:46;99087.50;;;23.65;70.33
74798;BME280;63326;45.088;7.658;2023-06-22T05:27:13;99085.47;;;23.24;71.78
74798;BME280;63326;45.088;7.658;2023-06-22T05:29:40;99090.16;;;23.28;72.26
74798;BME280;63326;45.088;7.658;2023-06-22T05:32:07;99081.31;;;23.21;72.06
74798;BME280;63326;45.088;7.658;2023-06-22T05:34:34;99082.38;;;23.15;71.73
74798;BME280;63326;45.088;7.658;2023-06-22T05:37:02;99079.38;;;23.17;71.54
74798;BME280;63326;45.088;7.658;2023-06-22T05:39:28;99089.72;;;23.36;71.54
74798;BME280;63326;45.088;7.658;2023-06-22T05:41:55;99083.28;;;23.53;71.21
74798;BME280;63326;45.088;7.658;2023-06-22T05:44:22;99085.00;;;23.64;70.55
74798;BME280;63326;45.088;7.658;2023-06-22T05:46:49;99084.22;;;23.68;69.81
74798;BME280;63326;45.088;7.658;2023-06-22T05:49:16;99090.22;;;23.65;69.53
74798;BME280;63326;45.088;7.658;2023-06-22T05:51:43;99103.31;;;23.53;71.66
74798;BME280;63326;45.088;7.658;2023-06-22T05:54:10;99081.28;;;23.43;72.03
74798;BME280;63326;45.088;7.658;2023-06-22T05:56:36;99062.75;;;23.55;71.58
74798;BME280;63326;45.088;7.658;2023-06-22T05:59:03;99080.78;;;23.88;70.94
74798;BME280;63326;45.088;7.658;2023-06-22T06:01:30;99076.03;;;24.16;69.94
74798;BME280;63326;45.088;7.658;2023-06-22T06:04:03;99079.50;;;24.59;68.68
74798;BME280;63326;45.088;7.658;2023-06-22T06:06:36;99093.59;;;24.88;66.29
74798;BME280;63326;45.088;7.658;2023-06-22T06:09:04;99094.75;;;25.17;64.72
74798;BME280;63326;45.088;7.658;2023-06-22T06:11:31;99099.69;;;25.35;63.94
74798;BME280;63326;45.088;7.658;2023-06-22T06:13:57;99114.59;;;25.50;61.55
74798;BME280;63326;45.088;7.658;2023-06-22T06:16:25;99104.16;;;25.67;61.08
74798;BME280;63326;45.088;7.658;2023-06-22T06:18:51;99085.97;;;25.56;61.21
74798;BME280;63326;45.088;7.658;2023-06-22T06:21:20;99092.03;;;25.78;60.18
74798;BME280;63326;45.088;7.658;2023-06-22T06:23:46;99093.91;;;25.93;59.45
74798;BME280;63326;45.088;7.658;2023-06-22T06:26:13;99080.16;;;26.03;58.26
74798;BME280;63326;45.088;7.658;2023-06-22T06:28:43;99090.41;;;26.57;57.95
74798;BME280;63326;45.088;7.658;2023-06-22T06:31:10;99095.66;;;27.08;57.63
74798;BME280;63326;45.088;7.658;2023-06-22T06:33:38;99085.84;;;27.36;54.45
74798;BME280;63326;45.088;7.658;2023-06-22T06:36:05;99083.34;;;27.97;52.46
74798;BME280;63326;45.088;7.658;2023-06-22T06:38:32;99078.19;;;29.00;50.96
74798;BME280;63326;45.088;7.658;2023-06-22T06:40:59;99079.53;;;29.73;46.84
74798;BME280;63326;45.088;7.658;2023-06-22T06:43:26;99098.81;;;30.24;45.63
74798;BME280;63326;45.088;7.658;2023-06-22T06:45:53;99113.06;;;30.45;43.70
74798;BME280;63326;45.088;7.658;2023-06-22T06:48:20;99105.78;;;30.36;42.54
74798;BME280;63326;45.088;7.658;2023-06-22T06:50:47;99093.56;;;30.37;43.86
74798;BME280;63326;45.088;7.658;2023-06-22T06:53:13;99085.47;;;30.68;42.50
74798;BME280;63326;45.088;7.658;2023-06-22T06:55:40;99070.88;;;30.62;42.04
74798;BME280;63326;45.088;7.658;2023-06-22T06:58:07;99093.69;;;30.45;41.95
74798;BME280;63326;45.088;7.658;2023-06-22T07:00:36;99090.78;;;30.64;42.38
74798;BME280;63326;45.088;7.658;2023-06-22T07:03:03;99086.47;;;31.22;40.18
74798;BME280;63326;45.088;7.658;2023-06-22T07:05:30;99080.38;;;31.56;40.09
74798;BME280;63326;45.088;7.658;2023-06-22T07:07:56;99087.31;;;31.98;38.90
74798;BME280;63326;45.088;7.658;2023-06-22T07:10:23;99089.81;;;32.39;37.72
74798;BME280;63326;45.088;7.658;2023-06-22T07:12:50;99092.38;;;32.84;36.17
74798;BME280;63326;45.088;7.658;2023-06-22T07:15:17;99093.91;;;33.42;35.53
74798;BME280;63326;45.088;7.658;2023-06-22T07:17:43;99072.41;;;33.77;33.91
74798;BME280;63326;45.088;7.658;2023-06-22T07:20:11;99101.66;;;34.09;33.81
74798;BME280;63326;45.088;7.658;2023-06-22T07:22:42;99104.59;;;34.04;32.93
74798;BME280;63326;45.088;7.658;2023-06-22T07:25:09;99096.19;;;34.21;32.45
74798;BME280;63326;45.088;7.658;2023-06-22T07:27:38;99095.44;;;34.04;31.98
74798;BME280;63326;45.088;7.658;2023-06-22T07:30:07;99085.19;;;33.61;31.87
74798;BME280;63326;45.088;7.658;2023-06-22T07:32:33;99091.75;;;33.30;32.59
74798;BME280;63326;45.088;7.658;2023-06-22T07:35:01;99093.56;;;33.52;32.47
74798;BME280;63326;45.088;7.658;2023-06-22T07:37:28;99083.91;;;33.06;31.03
74798;BME280;63326;45.088;7.658;2023-06-22T07:39:55;99091.28;;;32.94;32.30
74798;BME280;63326;45.088;7.658;2023-06-22T07:42:25;99064.44;;;33.24;31.71
74798;BME280;63326;45.088;7.658;2023-06-22T07:44:53;99080.13;;;33.37;32.06
74798;BME280;63326;45.088;7.658;2023-06-22T07:47:21;99094.78;;;32.60;35.27
74798;BME280;63326;45.088;7.658;2023-06-22T07:49:52;99063.75;;;32.27;35.91
74798;BME280;63326;45.088;7.658;2023-06-22T07:52:21;99085.22;;;33.35;33.62
74798;BME280;63326;45.088;7.658;2023-06-22T07:54:48;99070.31;;;33.31;33.34
74798;BME280;63326;45.088;7.658;2023-06-22T07:57:15;99076.22;;;33.64;31.12
74798;BME280;63326;45.088;7.658;2023-06-22T07:59:41;99078.31;;;32.72;33.54
74798;BME280;63326;45.088;7.658;2023-06-22T08:02:08;99042.19;;;32.32;34.53
74798;BME280;63326;45.088;7.658;2023-06-22T08:04:36;99067.00;;;32.68;34.58
74798;BME280;63326;45.088;7.658;2023-06-22T08:07:03;99066.41;;;31.92;35.11
74798;BME280;63326;45.088;7.658;2023-06-22T08:09:31;99063.06;;;31.59;35.38
74798;BME280;63326;45.088;7.658;2023-06-22T08:11:59;99048.97;;;31.47;36.16
74798;BME280;63326;45.088;7.658;2023-06-22T08:14:27;99057.44;;;31.42;35.62
74798;BME280;63326;45.088;7.658;2023-06-22T08:16:54;99056.63;;;31.05;34.59
74798;BME280;63326;45.088;7.658;2023-06-22T08:19:20;99050.53;;;31.61;30.49
74798;BME280;63326;45.088;7.658;2023-06-22T08:21:47;99045.13;;;33.10;29.85
74798;BME280;63326;45.088;7.658;2023-06-22T08:24:14;99034.09;;;32.53;28.73
74798;BME280;63326;45.088;7.658;2023-06-22T08:26:41;99009.41;;;33.21;26.91
74798;BME280;63326;45.088;7.658;2023-06-22T08:29:08;99060.06;;;33.87;26.37
74798;BME280;63326;45.088;7.658;2023-06-22T08:31:35;99039.72;;;33.14;28.25
74798;BME280;63326;45.088;7.658;2023-06-22T08:34:02;99048.56;;;33.24;26.90
74798;BME280;63326;45.088;7.658;2023-06-22T08:36:28;99051.69;;;33.05;27.35
74798;BME280;63326;45.088;7.658;2023-06-22T08:38:59;99050.53;;;33.15;28.82
74798;BME280;63326;45.088;7.658;2023-06-22T08:41:29;99050.16;;;33.60;28.53
74798;BME280;63326;45.088;7.658;2023-06-22T08:43:56;98992.59;;;33.73;27.10
74798;BME280;63326;45.088;7.658;2023-06-22T08:46:24;99033.81;;;34.64;24.97
74798;BME280;63326;45.088;7.658;2023-06-22T08:48:57;99001.44;;;35.47;22.25
74798;BME280;63326;45.088;7.658;2023-06-22T08:51:24;99028.34;;;35.51;22.88
74798;BME280;63326;45.088;7.658;2023-06-22T08:53:51;99015.00;;;35.69;23.55
74798;BME280;63326;45.088;7.658;2023-06-22T08:56:17;99022.63;;;36.05;22.86
74798;BME280;63326;45.088;7.658;2023-06-22T08:58:45;99019.47;;;35.82;22.08
74798;BME280;63326;45.088;7.658;2023-06-22T09:01:11;99013.19;;;36.46;22.00
74798;BME280;63326;45.088;7.658;2023-06-22T09:03:38;99005.31;;;36.89;21.45
74798;BME280;63326;45.088;7.658;2023-06-22T09:06:05;99006.44;;;37.00;20.91
74798;BME280;63326;45.088;7.658;2023-06-22T09:08:32;98963.13;;;36.82;20.82
74798;BME280;63326;45.088;7.658;2023-06-22T09:10:59;98977.75;;;37.19;20.29
74798;BME280;63326;45.088;7.658;2023-06-22T09:13:26;98933.41;;;37.21;20.63
74798;BME280;63326;45.088;7.658;2023-06-22T09:15:52;98976.81;;;37.27;21.11
74798;BME280;63326;45.088;7.658;2023-06-22T09:18:19;98952.59;;;36.51;22.21
74798;BME280;63326;45.088;7.658;2023-06-22T09:20:46;98986.34;;;36.58;22.36
74798;BME280;63326;45.088;7.658;2023-06-22T09:23:12;98979.25;;;36.60;22.50
74798;BME280;63326;45.088;7.658;2023-06-22T09:25:39;98967.22;;;36.60;22.14
74798;BME280;63326;45.088;7.658;2023-06-22T09:28:07;98972.94;;;37.75;21.57
74798;BME280;63326;45.088;7.658;2023-06-22T09:30:33;98978.34;;;38.15;21.40
74798;BME280;63326;45.088;7.658;2023-06-22T09:33:00;98972.50;;;38.75;20.61
74798;BME280;63326;45.088;7.658;2023-06-22T09:35:27;98976.34;;;38.00;21.29
74798;BME280;63326;45.088;7.658;2023-06-22T09:37:54;98970.25;;;38.30;20.96
74798;BME280;63326;45.088;7.658;2023-06-22T09:40:22;98955.81;;;37.65;21.12
74798;BME280;63326;45.088;7.658;2023-06-22T09:42:48;98947.81;;;36.51;22.16
74798;BME280;63326;45.088;7.658;2023-06-22T09:45:15;98948.63;;;35.66;22.93
74798;BME280;63326;45.088;7.658;2023-06-22T09:47:42;98937.66;;;35.03;23.46
74798;BME280;63326;45.088;7.658;2023-06-22T09:50:09;98942.41;;;34.49;24.42
74798;BME280;63326;45.088;7.658;2023-06-22T09:52:36;98967.38;;;34.66;24.25
74798;BME280;63326;45.088;7.658;2023-06-22T09:55:07;98946.00;;;34.49;23.54
74798;BME280;63326;45.088;7.658;2023-06-22T09:57:34;98976.19;;;35.43;22.42
74798;BME280;63326;45.088;7.658;2023-06-22T10:00:00;98991.53;;;35.37;23.33
74798;BME280;63326;45.088;7.658;2023-06-22T10:02:29;98980.81;;;34.64;23.58
74798;BME280;63326;45.088;7.658;2023-06-22T10:04:56;98949.06;;;34.57;23.30
74798;BME280;63326;45.088;7.658;2023-06-22T10:07:23;98932.47;;;35.14;23.17
74798;BME280;63326;45.088;7.658;2023-06-22T10:09:50;98914.66;;;35.64;22.91
74798;BME280;63326;45.088;7.658;2023-06-22T10:12:17;98903.81;;;35.75;22.45
74798;BME280;63326;45.088;7.658;2023-06-22T10:14:43;98878.06;;;36.18;21.55
74798;BME280;63326;45.088;7.658;2023-06-22T10:17:11;98888.13;;;36.87;21.38
74798;BME280;63326;45.088;7.658;2023-06-22T10:19:38;98900.59;;;36.49;21.73
74798;BME280;63326;45.088;7.658;2023-06-22T10:22:05;98914.41;;;36.06;21.85
74798;BME280;63326;45.088;7.658;2023-06-22T10:24:31;98925.47;;;36.14;21.81
74798;BME280;63326;45.088;7.658;2023-06-22T10:26:58;98918.53;;;36.48;21.66
74798;BME280;63326;45.088;7.658;2023-06-22T10:29:25;98917.44;;;36.78;21.72
74798;BME280;63326;45.088;7.658;2023-06-22T10:31:52;98890.00;;;36.83;21.79
74798;BME280;63326;45.088;7.658;2023-06-22T10:34:18;98920.44;;;36.85;20.64
74798;BME280;63326;45.088;7.658;2023-06-22T10:36:45;98918.16;;;36.10;21.34
74798;BME280;63326;45.088;7.658;2023-06-22T10:39:14;98916.38;;;36.42;21.71
74798;BME280;63326;45.088;7.658;2023-06-22T10:41:41;98923.03;;;36.78;21.31
74798;BME280;63326;45.088;7.658;2023-06-22T10:44:08;98925.38;;;36.75;21.34
74798;BME280;63326;45.088;7.658;2023-06-22T10:46:35;98913.53;;;35.89;21.63
74798;BME280;63326;45.088;7.658;2023-06-22T10:49:01;98947.03;;;35.32;21.48
74798;BME280;63326;45.088;7.658;2023-06-22T10:51:28;98957.34;;;35.07;22.57
74798;BME280;63326;45.088;7.658;2023-06-22T10:53:55;98931.97;;;35.00;22.31
74798;BME280;63326;45.088;7.658;2023-06-22T10:56:21;98938.19;;;35.18;22.44
74798;BME280;63326;45.088;7.658;2023-06-22T10:58:49;98939.13;;;35.34;23.34
74798;BME280;63326;45.088;7.658;2023-06-22T11:01:16;98945.56;;;35.34;23.66
74798;BME280;63326;45.088;7.658;2023-06-22T11:04:03;98942.94;;;35.62;23.68
74798;BME280;63326;45.088;7.658;2023-06-22T11:06:31;98936.84;;;36.46;22.64
74798;BME280;63326;45.088;7.658;2023-06-22T11:08:57;98937.63;;;36.59;22.38
74798;BME280;63326;45.088;7.658;2023-06-22T11:11:32;98927.78;;;36.37;21.98
74798;BME280;63326;45.088;7.658;2023-06-22T11:13:59;98918.44;;;36.45;22.41
74798;BME280;63326;45.088;7.658;2023-06-22T11:16:27;98894.91;;;36.46;22.47
74798;BME280;63326;45.088;7.658;2023-06-22T11:18:53;98919.44;;;36.12;22.83
74798;BME280;63326;45.088;7.658;2023-06-22T11:21:20;98886.94;;;35.34;23.70
74798;BME280;63326;45.088;7.658;2023-06-22T11:23:47;98921.16;;;36.41;22.88
74798;BME280;63326;45.088;7.658;2023-06-22T11:26:14;98931.88;;;35.66;23.80
74798;BME280;63326;45.088;7.658;2023-06-22T11:28:41;98910.22;;;35.75;23.72
74798;BME280;63326;45.088;7.658;2023-06-22T11:31:08;98881.19;;;34.86;25.44
74798;BME280;63326;45.088;7.658;2023-06-22T11:33:52;98862.81;;;33.80;26.32
74798;BME280;63326;45.088;7.658;2023-06-22T11:36:19;98852.94;;;33.24;27.35
74798;BME280;63326;45.088;7.658;2023-06-22T11:38:46;98860.66;;;33.09;27.33
74798;BME280;63326;45.088;7.658;2023-06-22T11:41:13;98864.81;;;32.95;27.74
74798;BME280;63326;45.088;7.658;2023-06-22T11:43:39;98886.06;;;32.99;27.91
74798;BME280;63326;45.088;7.658;2023-06-22T11:46:06;98879.38;;;32.66;27.87
74798;BME280;63326;45.088;7.658;2023-06-22T11:48:33;98885.75;;;32.66;28.38
74798;BME280;63326;45.088;7.658;2023-06-22T11:51:00;98877.75;;;32.56;28.67
74798;BME280;63326;45.088;7.658;2023-06-22T11:53:29;98851.84;;;32.99;28.01
74798;BME280;63326;45.088;7.658;2023-06-22T11:55:56;98847.41;;;33.15;27.60
74798;BME280;63326;45.088;7.658;2023-06-22T11:58:23;98843.50;;;32.99;27.69
74798;BME280;63326;45.088;7.658;2023-06-22T12:00:49;98842.97;;;33.14;27.67
74798;BME280;63326;45.088;7.658;2023-06-22T12:03:19;98777.09;;;33.27;26.96
74798;BME280;63326;45.088;7.658;2023-06-22T12:05:46;98788.66;;;33.46;26.70
74798;BME280;63326;45.088;7.658;2023-06-22T12:08:13;98796.16;;;33.54;26.17
74798;BME280;63326;45.088;7.658;2023-06-22T12:10:40;98807.16;;;34.34;25.66
74798;BME280;63326;45.088;7.658;2023-06-22T12:13:07;98798.03;;;34.67;24.91
74798;BME280;63326;45.088;7.658;2023-06-22T12:15:34;98792.28;;;34.96;24.73
74798;BME280;63326;45.088;7.658;2023-06-22T12:18:01;98767.09;;;34.60;25.30
74798;BME280;63326;45.088;7.658;2023-06-22T12:20:28;98781.47;;;34.95;24.79
74798;BME280;63326;45.088;7.658;2023-06-22T12:22:55;98752.47;;;34.75;24.94
74798;BME280;63326;45.088;7.658;2023-06-22T12:25:24;98773.16;;;35.07;24.94
74798;BME280;63326;45.088;7.658;2023-06-22T12:27:51;98756.97;;;35.13;24.87
74798;BME280;63326;45.088;7.658;2023-06-22T12:30:18;98781.72;;;35.14;24.05
74798;BME280;63326;45.088;7.658;2023-06-22T12:32:45;98745.91;;;34.92;24.47
74798;BME280;63326;45.088;7.658;2023-06-22T12:35:12;98783.13;;;35.57;24.51
74798;BME280;63326;45.088;7.658;2023-06-22T12:37:41;98765.47;;;35.53;24.37
74798;BME280;63326;45.088;7.658;2023-06-22T12:40:11;98813.63;;;35.86;24.08
74798;BME280;63326;45.088;7.658;2023-06-22T12:42:39;98803.16;;;35.59;23.96
74798;BME280;63326;45.088;7.658;2023-06-22T12:45:07;98793.38;;;35.65;24.01
74798;BME280;63326;45.088;7.658;2023-06-22T12:47:33;98778.84;;;35.47;23.88
74798;BME280;63326;45.088;7.658;2023-06-22T12:50:00;98793.56;;;34.33;25.63
74798;BME280;63326;45.088;7.658;2023-06-22T12:52:27;98764.81;;;32.98;28.06
74798;BME280;63326;45.088;7.658;2023-06-22T12:54:53;98799.69;;;32.87;27.84
74798;BME280;63326;45.088;7.658;2023-06-22T12:57:21;98815.25;;;33.26;27.84
74798;BME280;63326;45.088;7.658;2023-06-22T12:59:48;98828.28;;;33.05;27.74
74798;BME280;63326;45.088;7.658;2023-06-22T13:02:15;98830.16;;;33.22;28.09
74798;BME280;63326;45.088;7.658;2023-06-22T13:04:42;98808.16;;;32.99;27.01
74798;BME280;63326;45.088;7.658;2023-06-22T13:07:10;98795.63;;;32.76;26.66
74798;BME280;63326;45.088;7.658;2023-06-22T13:09:48;98771.34;;;32.38;27.00
74798;BME280;63326;45.088;7.658;2023-06-22T13:12:20;98835.25;;;32.38;28.00
74798;BME280;63326;45.088;7.658;2023-06-22T13:14:47;98832.28;;;32.35;28.73
74798;BME280;63326;45.088;7.658;2023-06-22T13:17:14;98846.75;;;31.80;29.54